createdAt,value
2023-02-03T00:02:04.726Z,9.23
2023-02-03T00:04:31.814Z,8.30
2023-02-03T00:06:58.534Z,10.50
2023-02-03T00:09:25.509Z,7.43
2023-02-03T00:11:52.180Z,9.53
2023-02-03T00:14:18.764Z,10.70
2023-02-03T00:16:45.925Z,7.00
2023-02-03T00:19:12.599Z,6.87
2023-02-03T00:21:39.256Z,12.07
2023-02-03T00:24:06.026Z,5.00
2023-02-03T00:26:32.713Z,9.43
2023-02-03T00:29:00.689Z,8.10
2023-02-03T00:31:27.457Z,9.17
2023-02-03T00:33:57.973Z,9.03
2023-02-03T00:36:25.583Z,12.73
2023-02-03T00:38:52.907Z,10.07
2023-02-03T00:41:20.001Z,11.40
2023-02-03T00:43:46.785Z,6.13
2023-02-03T00:46:14.426Z,8.07
2023-02-03T00:48:41.175Z,8.33
2023-02-03T00:51:07.794Z,8.83
2023-02-03T00:53:34.476Z,9.80
2023-02-03T00:56:01.662Z,8.87
2023-02-03T00:58:28.389Z,8.17
2023-02-03T01:00:57.052Z,10.97
2023-02-03T01:03:24.738Z,5.77
2023-02-03T01:05:51.467Z,7.27
2023-02-03T01:08:19.986Z,6.60
2023-02-03T01:10:46.658Z,6.17
2023-02-03T01:13:13.357Z,10.47
2023-02-03T01:15:46.016Z,5.83
2023-02-03T01:18:12.821Z,6.37
2023-02-03T01:20:39.419Z,4.47
2023-02-03T01:23:06.064Z,7.77
2023-02-03T01:25:34.705Z,7.17
2023-02-03T01:28:01.409Z,7.50
2023-02-03T01:30:28.618Z,8.03
2023-02-03T01:32:56.063Z,8.97
2023-02-03T01:35:22.737Z,8.10
2023-02-03T01:37:49.455Z,9.70
2023-02-03T01:40:16.234Z,8.50
2023-02-03T01:42:42.901Z,7.03
2023-02-03T01:45:13.235Z,7.47
2023-02-03T01:47:45.007Z,6.73
2023-02-03T01:50:17.904Z,8.47
2023-02-03T01:52:47.286Z,7.87
2023-02-03T01:55:17.687Z,7.43
2023-02-03T01:57:50.428Z,6.63
2023-02-03T02:00:17.719Z,9.80
2023-02-03T02:02:46.239Z,6.50
2023-02-03T02:05:25.046Z,6.60
2023-02-03T02:07:51.792Z,8.13
2023-02-03T02:10:18.488Z,9.57
2023-02-03T02:12:45.135Z,8.93
2023-02-03T02:15:13.120Z,8.80
2023-02-03T02:17:46.186Z,7.60
2023-02-03T02:20:31.565Z,6.17
2023-02-03T02:22:58.126Z,14.13
2023-02-03T02:25:48.272Z,5.80
2023-02-03T02:28:34.104Z,6.37
2023-02-03T02:31:11.320Z,10.90
2023-02-03T02:33:43.747Z,10.10
2023-02-03T02:36:30.610Z,4.60
2023-02-03T02:39:20.667Z,4.73
2023-02-03T02:41:52.501Z,9.07
2023-02-03T02:44:29.671Z,7.93
2023-02-03T02:46:58.898Z,6.20
2023-02-03T02:49:30.126Z,7.07
2023-02-03T02:51:58.877Z,9.93
2023-02-03T02:54:27.592Z,7.77
2023-02-03T02:56:56.551Z,6.43
2023-02-03T02:59:24.278Z,5.03
2023-02-03T03:01:51.647Z,7.87
2023-02-03T03:04:20.394Z,7.63
2023-02-03T03:06:53.724Z,8.00
2023-02-03T03:09:27.087Z,4.23
2023-02-03T03:11:58.235Z,6.47
2023-02-03T03:14:26.781Z,6.43
2023-02-03T03:16:59.875Z,5.23
2023-02-03T03:19:37.270Z,8.77
2023-02-03T03:22:05.523Z,9.40
2023-02-03T03:24:33.807Z,6.63
2023-02-03T03:27:12.620Z,10.07
2023-02-03T03:29:42.125Z,10.00
2023-02-03T03:32:08.981Z,6.03
2023-02-03T03:34:35.714Z,5.47
2023-02-03T03:37:02.368Z,5.03
2023-02-03T03:39:34.080Z,7.43
2023-02-03T03:42:06.562Z,9.33
2023-02-03T03:44:38.138Z,9.53
2023-02-03T03:47:10.830Z,11.03
2023-02-03T03:49:38.874Z,4.73
2023-02-03T03:52:07.878Z,5.43
2023-02-03T03:54:36.318Z,6.87
2023-02-03T03:57:15.177Z,9.33
2023-02-03T03:59:43.858Z,9.20
2023-02-03T04:02:12.317Z,9.43
2023-02-03T04:04:39.639Z,7.83
2023-02-03T04:07:06.322Z,11.03
2023-02-03T04:09:36.608Z,6.73
2023-02-03T04:12:06.016Z,7.20
2023-02-03T04:14:34.541Z,7.63
2023-02-03T04:17:01.965Z,8.73
2023-02-03T04:19:28.605Z,9.00
2023-02-03T04:21:55.262Z,2.97
2023-02-03T04:24:21.882Z,6.40
2023-02-03T04:26:48.585Z,7.27
2023-02-03T04:29:15.195Z,8.60
2023-02-03T04:31:41.872Z,6.00
2023-02-03T04:34:08.556Z,11.40
2023-02-03T04:36:35.175Z,8.87
2023-02-03T04:39:01.889Z,6.07
2023-02-03T04:41:28.556Z,7.17
2023-02-03T04:43:55.176Z,6.63
2023-02-03T04:46:22.482Z,10.67
2023-02-03T04:48:49.180Z,7.83
2023-02-03T04:51:15.907Z,6.70
2023-02-03T04:53:42.510Z,4.43
2023-02-03T04:56:09.336Z,8.53
2023-02-03T04:58:36.564Z,6.50
2023-02-03T05:01:08.215Z,5.23
2023-02-03T05:03:35.471Z,7.77
2023-02-03T05:06:03.424Z,6.23
2023-02-03T05:08:30.759Z,5.57
2023-02-03T05:10:58.141Z,6.23
2023-02-03T05:13:25.056Z,6.37
2023-02-03T05:15:51.695Z,5.97
2023-02-03T05:18:18.287Z,7.20
2023-02-03T05:20:44.948Z,8.10
2023-02-03T05:23:11.560Z,5.03
2023-02-03T05:25:38.241Z,10.50
2023-02-03T05:28:04.946Z,5.47
2023-02-03T05:30:31.573Z,4.63
2023-02-03T05:32:58.259Z,10.70
2023-02-03T05:35:24.943Z,4.27
2023-02-03T05:37:51.783Z,5.13
2023-02-03T05:40:37.017Z,8.97
2023-02-03T05:43:03.658Z,7.23
2023-02-03T05:45:30.305Z,6.23
2023-02-03T05:47:56.965Z,7.70
2023-02-03T05:50:23.755Z,12.47
2023-02-03T05:52:50.569Z,5.83
2023-02-03T05:55:17.277Z,4.63
2023-02-03T05:57:43.905Z,5.53
2023-02-03T06:00:10.953Z,6.97
2023-02-03T06:02:40.400Z,5.70
2023-02-03T06:05:07.187Z,8.67
2023-02-03T06:07:33.797Z,6.97
2023-02-03T06:10:00.413Z,8.10
2023-02-03T06:12:28.339Z,8.80
2023-02-03T06:14:56.080Z,6.83
2023-02-03T06:17:22.769Z,9.00
2023-02-03T06:19:49.359Z,6.60
2023-02-03T06:22:16.056Z,8.50
2023-02-03T06:24:44.904Z,10.17
2023-02-03T06:27:12.300Z,7.80
2023-02-03T06:29:38.954Z,6.90
2023-02-03T06:32:05.826Z,5.27
2023-02-03T06:34:33.234Z,4.07
2023-02-03T06:36:59.923Z,6.20
2023-02-03T06:39:26.575Z,8.50
2023-02-03T06:41:55.754Z,7.10
2023-02-03T06:44:22.428Z,7.20
2023-02-03T06:46:50.851Z,6.37
2023-02-03T06:49:18.246Z,6.63
2023-02-03T06:51:45.683Z,4.30
2023-02-03T06:54:12.929Z,3.83
2023-02-03T06:56:39.595Z,7.30
2023-02-03T06:59:06.350Z,4.20
2023-02-03T07:01:33.099Z,5.53
2023-02-03T07:03:59.775Z,3.17
2023-02-03T07:06:31.865Z,5.10
2023-02-03T07:09:00.787Z,8.70
2023-02-03T07:11:28.864Z,7.27
2023-02-03T07:13:55.644Z,4.50
2023-02-03T07:16:22.535Z,5.03
2023-02-03T07:18:49.611Z,6.43
2023-02-03T07:21:16.743Z,6.37
2023-02-03T07:23:43.475Z,5.60
2023-02-03T07:26:10.261Z,7.30
2023-02-03T07:28:37.600Z,5.83
2023-02-03T07:31:10.862Z,9.03
2023-02-03T07:33:38.285Z,5.47
2023-02-03T07:36:05.320Z,5.17
2023-02-03T07:38:32.205Z,3.97
2023-02-03T07:40:59.423Z,6.97
2023-02-03T07:43:26.078Z,7.27
2023-02-03T07:45:52.812Z,3.97
2023-02-03T07:48:20.678Z,5.87
2023-02-03T07:50:48.352Z,6.63
2023-02-03T07:53:15.803Z,4.73
2023-02-03T07:55:42.668Z,2.17
2023-02-03T07:58:09.445Z,6.20
2023-02-03T08:00:36.195Z,6.33
2023-02-03T08:03:03.097Z,4.43
2023-02-03T08:05:30.393Z,5.40
2023-02-03T08:07:57.425Z,3.33
2023-02-03T08:10:24.534Z,3.83
2023-02-03T08:12:54.736Z,6.03
2023-02-03T08:15:21.586Z,5.70
2023-02-03T08:17:51.001Z,7.43
2023-02-03T08:20:17.921Z,3.37
2023-02-03T08:22:44.611Z,3.23
2023-02-03T08:25:12.090Z,5.87
2023-02-03T08:27:39.035Z,6.93
2023-02-03T08:30:06.533Z,3.23
2023-02-03T08:32:33.283Z,5.97
2023-02-03T08:35:00.449Z,6.37
2023-02-03T08:37:28.340Z,6.07
2023-02-03T08:39:55.316Z,5.17
2023-02-03T08:42:22.022Z,4.13
2023-02-03T08:44:49.373Z,3.73
2023-02-03T08:47:16.075Z,2.83
2023-02-03T08:49:42.862Z,3.27
2023-02-03T08:52:11.044Z,6.47
2023-02-03T08:54:37.870Z,8.40
2023-02-03T08:57:04.908Z,4.70
2023-02-03T08:59:36.120Z,6.53
2023-02-03T09:02:03.825Z,4.87
2023-02-03T09:04:30.626Z,5.17
2023-02-03T09:06:57.279Z,4.33
2023-02-03T09:09:26.445Z,7.93
2023-02-03T09:11:56.992Z,4.20
2023-02-03T09:14:25.433Z,7.83
2023-02-03T09:16:52.116Z,5.80
2023-02-03T09:19:18.929Z,5.17
2023-02-03T09:21:47.801Z,4.07
2023-02-03T09:24:18.138Z,6.80
2023-02-03T09:26:44.855Z,6.90
2023-02-03T09:29:11.908Z,4.77
2023-02-03T09:31:38.628Z,7.23
2023-02-03T09:34:05.292Z,9.87
2023-02-03T09:36:31.907Z,5.47
2023-02-03T09:38:58.604Z,7.13
2023-02-03T09:41:42.617Z,7.07
2023-02-03T09:44:24.300Z,6.30
2023-02-03T09:46:54.237Z,4.73
2023-02-03T09:49:32.811Z,5.20
2023-02-03T09:52:02.716Z,6.27
2023-02-03T09:54:42.516Z,3.50
2023-02-03T09:57:14.625Z,7.80
2023-02-03T09:59:41.349Z,9.27
2023-02-03T10:02:21.168Z,5.83
2023-02-03T10:04:52.840Z,6.43
2023-02-03T10:07:34.113Z,10.57
2023-02-03T10:10:06.567Z,8.00
2023-02-03T10:12:44.743Z,10.07
2023-02-03T10:15:17.034Z,8.07
2023-02-03T10:17:48.180Z,12.33
2023-02-03T10:20:18.110Z,10.37
2023-02-03T10:22:47.257Z,6.10
2023-02-03T10:25:13.866Z,5.57
2023-02-03T10:27:42.043Z,7.70
2023-02-03T10:30:20.286Z,5.40
2023-02-03T10:32:49.253Z,8.57
2023-02-03T10:35:15.915Z,6.83
2023-02-03T10:37:47.994Z,8.63
2023-02-03T10:40:15.482Z,10.10
2023-02-03T10:43:01.385Z,6.03
2023-02-03T10:45:28.509Z,6.33
2023-02-03T10:47:55.672Z,7.93
2023-02-03T10:50:31.877Z,6.97
2023-02-03T10:53:22.264Z,9.23
2023-02-03T10:55:50.600Z,5.43
2023-02-03T10:58:27.445Z,3.97
2023-02-03T11:00:58.867Z,6.90
2023-02-03T11:03:26.732Z,6.23
2023-02-03T11:06:05.588Z,8.33
2023-02-03T11:08:33.267Z,5.43
2023-02-03T11:11:04.513Z,6.00
2023-02-03T11:13:31.592Z,7.23
2023-02-03T11:16:04.518Z,6.30
2023-02-03T11:18:33.924Z,6.47
2023-02-03T11:21:00.605Z,9.83
2023-02-03T11:23:27.238Z,5.83
2023-02-03T11:25:53.902Z,5.90
2023-02-03T11:28:22.087Z,7.90
2023-02-03T11:30:55.112Z,7.30
2023-02-03T11:33:24.655Z,5.43
2023-02-03T11:35:59.040Z,8.03
2023-02-03T11:38:33.571Z,8.87
2023-02-03T11:41:01.323Z,4.93
2023-02-03T11:43:29.396Z,7.97
2023-02-03T11:46:01.921Z,6.47
2023-02-03T11:48:43.947Z,7.03
2023-02-03T11:51:29.033Z,7.90
2023-02-03T11:54:22.188Z,8.30
2023-02-03T11:56:51.576Z,6.53
2023-02-03T11:59:21.350Z,10.57
2023-02-03T12:01:51.040Z,7.30
2023-02-03T12:04:40.730Z,6.03
2023-02-03T12:07:27.663Z,7.70
2023-02-03T12:10:08.083Z,10.30
2023-02-03T12:12:37.796Z,6.10
2023-02-03T12:15:19.511Z,6.23
2023-02-03T12:17:49.200Z,11.87
2023-02-03T12:20:25.967Z,8.73
2023-02-03T12:22:58.847Z,9.47
2023-02-03T12:25:30.168Z,12.77
2023-02-03T12:28:23.729Z,9.97
2023-02-03T12:31:04.753Z,15.10
2023-02-03T12:33:34.920Z,9.47
2023-02-03T12:36:08.167Z,9.10
2023-02-03T12:38:58.179Z,9.83
2023-02-03T12:41:28.464Z,11.40
2023-02-03T12:43:58.683Z,9.80
2023-02-03T12:46:31.272Z,12.30
2023-02-03T12:49:01.955Z,13.13
2023-02-03T12:51:42.145Z,11.40
2023-02-03T12:54:33.245Z,10.67
2023-02-03T12:57:27.406Z,17.00
2023-02-03T12:59:59.485Z,9.63
2023-02-03T13:02:30.844Z,12.20
2023-02-03T13:05:05.806Z,12.00
2023-02-03T13:07:39.005Z,10.70
2023-02-03T13:10:19.299Z,11.17
2023-02-03T13:12:49.801Z,13.93
2023-02-03T13:15:30.981Z,10.80
2023-02-03T13:18:01.419Z,17.30
2023-02-03T13:20:31.432Z,12.93
2023-02-03T13:22:58.314Z,12.23
2023-02-03T13:25:45.221Z,14.30
2023-02-03T13:28:30.935Z,16.07
2023-02-03T13:31:16.328Z,10.70
2023-02-03T13:33:55.295Z,12.10
2023-02-03T13:36:40.336Z,12.47
2023-02-03T13:39:25.784Z,13.87
2023-02-03T13:41:55.116Z,10.43
2023-02-03T13:44:26.892Z,11.53
2023-02-03T13:46:54.313Z,12.53
2023-02-03T13:49:24.145Z,14.33
2023-02-03T13:51:51.573Z,12.70
2023-02-03T13:54:37.908Z,14.43
2023-02-03T13:57:06.801Z,11.37
2023-02-03T13:59:43.960Z,11.20
2023-02-03T14:02:19.665Z,14.83
2023-02-03T14:04:46.332Z,13.00
2023-02-03T14:07:33.373Z,12.37
2023-02-03T14:10:15.225Z,16.60
2023-02-03T14:12:51.178Z,17.40
2023-02-03T14:15:17.758Z,14.70
2023-02-03T14:17:44.302Z,14.23
2023-02-03T14:20:40.223Z,16.40
2023-02-03T14:23:09.840Z,18.23
2023-02-03T14:25:43.993Z,15.87
2023-02-03T14:28:12.196Z,14.27
2023-02-03T14:31:01.666Z,19.07
2023-02-03T14:33:47.259Z,18.30
2023-02-03T14:36:32.480Z,17.43
2023-02-03T14:39:01.482Z,15.53
2023-02-03T14:41:57.437Z,19.00
2023-02-03T14:44:42.846Z,16.67
2023-02-03T14:47:32.555Z,19.33
2023-02-03T14:50:02.208Z,15.53
2023-02-03T15:00:01.590Z,17.50
2023-02-03T15:02:31.080Z,18.40
2023-02-03T15:05:13.282Z,20.97
2023-02-03T15:07:48.556Z,17.27
2023-02-03T15:10:16.826Z,18.87
2023-02-03T15:12:45.032Z,18.77
2023-02-03T15:15:17.637Z,16.97
2023-02-03T15:17:44.210Z,18.10
2023-02-03T15:20:22.846Z,20.03
2023-02-03T15:22:49.436Z,18.10
2023-02-03T15:25:18.115Z,14.83
2023-02-03T15:27:44.837Z,16.10
2023-02-03T15:30:25.132Z,15.43
2023-02-03T15:33:02.911Z,16.77
2023-02-03T15:35:31.398Z,17.40
2023-02-03T15:38:02.334Z,14.07
2023-02-03T15:40:35.901Z,15.53
2023-02-03T15:43:07.446Z,17.57
2023-02-03T15:45:52.814Z,17.03
2023-02-03T15:48:27.841Z,14.77
2023-02-03T15:51:01.432Z,15.17
2023-02-03T15:53:45.159Z,17.67
2023-02-03T15:56:19.045Z,15.03
2023-02-03T15:58:46.047Z,15.07
2023-02-03T16:01:17.741Z,16.57
2023-02-03T16:03:47.156Z,18.50
2023-02-03T16:06:18.268Z,13.57
2023-02-03T16:08:49.103Z,14.30
2023-02-03T16:11:26.912Z,16.93
2023-02-03T16:13:57.180Z,12.53
2023-02-03T16:16:31.931Z,17.60
2023-02-03T16:19:00.484Z,16.03
2023-02-03T16:21:31.400Z,14.53
2023-02-03T16:23:58.238Z,19.57
2023-02-03T16:26:26.472Z,16.33
2023-02-03T16:29:27.114Z,19.03
2023-02-03T16:32:12.652Z,16.00
2023-02-03T16:34:58.103Z,17.07
2023-02-03T16:37:47.924Z,18.03
2023-02-03T16:40:36.171Z,19.03
2023-02-03T16:43:21.513Z,14.70
2023-02-03T16:46:13.991Z,17.37
2023-02-03T16:48:59.391Z,16.57
2023-02-03T16:51:26.825Z,18.57
2023-02-03T16:53:53.452Z,13.50
2023-02-03T16:56:20.058Z,14.63
2023-02-03T16:58:47.382Z,13.07
2023-02-03T17:01:14.196Z,12.60
2023-02-03T17:03:40.942Z,13.20
2023-02-03T17:06:09.036Z,14.57
2023-02-03T17:08:36.207Z,16.90
2023-02-03T17:11:04.468Z,15.57
2023-02-03T17:13:31.701Z,13.10
2023-02-03T17:15:58.510Z,12.93
2023-02-03T17:18:25.345Z,10.33
2023-02-03T17:20:52.304Z,9.73
2023-02-03T17:23:19.207Z,14.13
2023-02-03T17:25:46.612Z,9.00
2023-02-03T17:28:13.950Z,11.00
2023-02-03T17:30:40.817Z,9.60
2023-02-03T17:33:13.782Z,7.60
2023-02-03T17:35:44.122Z,9.83
2023-02-03T17:38:11.502Z,9.77
2023-02-03T17:54:12.753Z,12.77
2023-02-03T17:56:39.574Z,14.90
2023-02-03T17:59:06.736Z,11.20
2023-02-03T18:01:33.490Z,12.73
2023-02-03T18:04:03.301Z,10.33
2023-02-03T18:06:30.768Z,11.20
2023-02-03T18:09:02.016Z,9.83
2023-02-03T18:11:29.582Z,16.87
2023-02-03T18:13:56.481Z,15.23
2023-02-03T18:16:27.965Z,9.83
2023-02-03T18:18:55.621Z,13.57
2023-02-03T18:21:23.754Z,13.77
2023-02-03T18:23:51.400Z,15.53
2023-02-03T18:26:19.091Z,14.37
2023-02-03T18:28:46.117Z,10.67
2023-02-03T18:31:15.371Z,11.60
2023-02-03T18:33:43.124Z,10.00
2023-02-03T18:36:10.351Z,14.73
2023-02-03T18:38:37.732Z,12.70
2023-02-03T18:41:08.626Z,12.50
2023-02-03T18:43:35.563Z,16.03
2023-02-03T18:46:06.043Z,12.57
2023-02-03T18:48:32.846Z,10.73
2023-02-03T18:50:59.488Z,13.23
2023-02-03T18:53:26.227Z,15.57
2023-02-03T18:55:52.800Z,13.80
2023-02-03T18:58:19.380Z,12.03
2023-02-03T19:00:46.002Z,11.20
2023-02-03T19:03:13.892Z,13.13
2023-02-03T19:05:40.907Z,14.67
2023-02-03T19:08:08.588Z,15.60
2023-02-03T19:10:36.130Z,15.40
2023-02-03T19:13:02.823Z,12.57
2023-02-03T19:15:29.508Z,18.83
2023-02-03T19:17:56.097Z,18.57
2023-02-03T19:20:22.743Z,15.30
2023-02-03T19:22:50.281Z,15.17
2023-02-03T19:25:18.588Z,16.27
2023-02-03T19:27:45.196Z,16.73
2023-02-03T19:30:12.217Z,16.90
2023-02-03T19:32:38.933Z,14.67
2023-02-03T19:35:05.762Z,17.07
2023-02-03T19:37:32.496Z,15.17
2023-02-03T19:40:00.190Z,16.90
2023-02-03T19:42:26.802Z,20.97
2023-02-03T19:44:53.431Z,18.00
2023-02-03T19:47:20.200Z,19.77
2023-02-03T19:49:47.440Z,15.77
2023-02-03T19:52:14.135Z,20.93
2023-02-03T19:54:40.786Z,18.03
2023-02-03T19:57:07.515Z,21.10
2023-02-03T19:59:34.113Z,18.90
2023-02-03T20:02:12.609Z,20.20
2023-02-03T20:04:40.746Z,15.27
2023-02-03T20:07:07.810Z,16.83
2023-02-03T20:09:34.482Z,22.53
2023-02-03T20:12:01.177Z,17.13
2023-02-03T20:14:28.039Z,18.57
2023-02-03T20:16:54.685Z,19.50
2023-02-03T20:19:21.318Z,19.27
2023-02-03T20:21:47.981Z,19.10
2023-02-03T20:24:14.847Z,22.77
2023-02-03T20:26:42.797Z,22.07
2023-02-03T20:29:09.401Z,20.90
2023-02-03T20:31:36.661Z,22.57
2023-02-03T20:34:04.339Z,23.73
2023-02-03T20:36:32.580Z,18.10
2023-02-03T20:38:59.425Z,21.40
2023-02-03T20:41:26.121Z,17.53
2023-02-03T20:43:52.807Z,27.83
2023-02-03T20:46:19.863Z,19.67
2023-02-03T20:48:46.722Z,25.60
2023-02-03T20:51:14.149Z,23.10
2023-02-03T20:53:41.233Z,21.13
2023-02-03T20:56:12.286Z,25.03
2023-02-03T20:58:40.130Z,23.47
2023-02-03T21:01:12.286Z,24.90
2023-02-03T21:03:57.767Z,21.33
2023-02-03T21:06:24.676Z,21.03
2023-02-03T21:08:51.286Z,25.23
2023-02-03T21:11:26.635Z,19.03
2023-02-03T21:13:53.416Z,28.03
2023-02-03T21:16:27.682Z,20.30
2023-02-03T21:18:55.434Z,22.07
2023-02-03T21:21:32.213Z,18.67
2023-02-03T21:23:58.938Z,17.53
2023-02-03T21:26:27.221Z,16.13
2023-02-03T21:28:55.081Z,13.73
2023-02-03T21:31:24.953Z,19.00
2023-02-03T21:33:52.660Z,14.73
2023-02-03T21:36:21.166Z,16.57
2023-02-03T21:38:52.178Z,12.43
2023-02-03T21:41:20.347Z,12.47
2023-02-03T21:43:49.408Z,16.07
2023-02-03T21:46:20.207Z,14.40
2023-02-03T21:48:50.812Z,14.60
2023-02-03T21:51:17.501Z,12.97
2023-02-03T21:53:47.840Z,12.87
2023-02-03T21:56:16.969Z,20.73
2023-02-03T21:58:44.359Z,11.50
2023-02-03T22:01:16.494Z,13.00
2023-02-03T22:03:46.558Z,13.80
2023-02-03T22:06:13.609Z,12.83
2023-02-03T22:08:41.862Z,11.83
2023-02-03T22:11:08.822Z,17.13
2023-02-03T22:13:35.671Z,9.63
2023-02-03T22:16:02.320Z,16.13
2023-02-03T22:18:29.049Z,11.97
2023-02-03T22:20:55.699Z,18.07
2023-02-03T22:23:22.384Z,13.23
2023-02-03T22:25:49.221Z,12.03
2023-02-03T22:28:17.409Z,9.80
2023-02-03T22:30:44.204Z,13.70
2023-02-03T22:33:10.998Z,14.50
2023-02-03T22:35:37.624Z,14.30
2023-02-03T22:38:04.276Z,14.07
2023-02-03T22:40:31.222Z,11.07
2023-02-03T22:42:58.086Z,16.37
2023-02-03T22:45:24.700Z,10.80
2023-02-03T22:47:51.389Z,12.03
2023-02-03T22:50:34.496Z,16.00
2023-02-03T22:53:04.200Z,14.13
2023-02-03T22:55:31.341Z,16.87
2023-02-03T22:57:58.589Z,22.13
2023-02-03T23:00:25.689Z,19.53
2023-02-03T23:02:52.699Z,15.17
2023-02-03T23:05:19.431Z,20.37
2023-02-03T23:07:46.151Z,14.10
2023-02-03T23:10:15.659Z,16.57
2023-02-03T23:12:44.058Z,12.80
2023-02-03T23:15:11.029Z,16.30
2023-02-03T23:17:37.806Z,23.67
2023-02-03T23:20:05.512Z,15.17
2023-02-03T23:22:32.199Z,12.67
2023-02-03T23:25:00.307Z,8.90
2023-02-03T23:27:27.135Z,19.90
2023-02-03T23:29:53.841Z,12.87
2023-02-03T23:32:20.561Z,13.10
2023-02-03T23:35:06.140Z,16.00
2023-02-03T23:37:32.782Z,12.57
2023-02-03T23:39:59.428Z,11.30
2023-02-03T23:42:26.068Z,16.00
2023-02-03T23:44:52.727Z,10.30
2023-02-03T23:47:19.377Z,12.77
2023-02-03T23:49:46.334Z,16.40
2023-02-03T23:52:13.079Z,14.67
2023-02-03T23:54:39.775Z,11.10
2023-02-03T23:57:06.439Z,10.77
2023-02-03T23:59:33.133Z,15.03
